createdAt,value
2023-05-01T00:02:48.237Z,65.61
2023-05-01T00:07:53.805Z,65.58
2023-05-01T00:12:59.340Z,65.76
2023-05-01T00:18:04.932Z,66.14
2023-05-01T00:23:12.516Z,66.48
2023-05-01T00:28:19.555Z,66.63
2023-05-01T00:33:25.009Z,66.67
2023-05-01T00:38:30.361Z,66.80
2023-05-01T00:43:36.396Z,66.92
2023-05-01T00:48:41.795Z,67.18
2023-05-01T00:53:47.206Z,67.25
2023-05-01T00:58:53.491Z,67.43
2023-05-01T01:03:58.861Z,67.48
2023-05-01T01:09:19.200Z,67.55
2023-05-01T01:14:33.127Z,67.97
2023-05-01T01:20:12.474Z,68.06
2023-05-01T01:25:40.918Z,68.28
2023-05-01T01:31:12.041Z,68.42
2023-05-01T01:36:22.302Z,68.61
2023-05-01T01:41:33.301Z,68.72
2023-05-01T01:46:41.251Z,68.92
2023-05-01T01:51:48.765Z,69.04
2023-05-01T01:56:56.188Z,69.33
2023-05-01T02:02:02.851Z,69.19
2023-05-01T02:07:10.060Z,69.36
2023-05-01T02:12:17.659Z,69.50
2023-05-01T02:17:24.065Z,69.50
2023-05-01T02:22:30.289Z,69.51
2023-05-01T02:27:39.239Z,69.59
2023-05-01T02:32:44.824Z,69.70
2023-05-01T02:37:51.454Z,69.73
2023-05-01T02:42:57.838Z,69.90
2023-05-01T02:48:05.389Z,70.11
2023-05-01T02:53:12.294Z,70.16
2023-05-01T02:58:18.504Z,70.21
2023-05-01T03:03:23.918Z,70.31
2023-05-01T03:08:29.258Z,70.34
2023-05-01T03:13:34.726Z,70.28
2023-05-01T03:18:40.009Z,70.65
2023-05-01T03:23:45.443Z,70.74
2023-05-01T03:28:50.732Z,70.89
2023-05-01T03:33:56.232Z,70.89
2023-05-01T03:39:01.588Z,71.08
2023-05-01T03:44:07.366Z,71.16
2023-05-01T03:49:12.723Z,71.32
2023-05-01T03:54:18.328Z,71.23
2023-05-01T03:59:23.818Z,71.29
2023-05-01T04:04:30.085Z,71.37
2023-05-01T04:09:36.234Z,71.57
2023-05-01T04:14:43.240Z,72.00
2023-05-01T04:19:48.707Z,72.22
2023-05-01T04:24:54.357Z,72.48
2023-05-01T04:30:00.316Z,72.77
2023-05-01T04:35:07.160Z,72.89
2023-05-01T04:40:14.006Z,72.81
2023-05-01T04:45:19.948Z,72.82
2023-05-01T04:50:25.892Z,72.22
2023-05-01T04:55:31.363Z,71.92
2023-05-01T05:00:37.054Z,71.09
2023-05-01T05:05:42.320Z,70.79
2023-05-01T05:10:47.682Z,69.55
2023-05-01T05:15:53.176Z,68.40
2023-05-01T05:20:58.557Z,67.98
2023-05-01T05:26:04.203Z,67.13
2023-05-01T05:31:09.698Z,66.29
2023-05-01T05:36:15.083Z,64.79
2023-05-01T05:41:20.594Z,64.21
2023-05-01T05:46:26.104Z,63.68
2023-05-01T05:51:32.030Z,62.37
2023-05-01T05:56:37.346Z,61.36
2023-05-01T06:01:42.829Z,60.11
2023-05-01T06:06:48.541Z,59.11
2023-05-01T06:11:53.832Z,58.54
2023-05-01T06:16:59.393Z,56.95
2023-05-01T06:22:04.727Z,55.67
2023-05-01T06:27:10.054Z,54.99
2023-05-01T06:32:15.468Z,54.44
2023-05-01T06:37:21.056Z,54.06
2023-05-01T06:42:26.897Z,52.25
2023-05-01T06:47:32.264Z,52.06
2023-05-01T06:52:37.669Z,51.08
2023-05-01T06:57:43.033Z,51.20
2023-05-01T07:02:48.924Z,50.72
2023-05-01T07:08:01.367Z,50.14
2023-05-01T07:13:07.181Z,48.84
2023-05-01T07:18:12.760Z,47.93
2023-05-01T07:23:18.551Z,48.43
2023-05-01T07:28:23.880Z,48.15
2023-05-01T07:33:29.453Z,48.49
2023-05-01T07:38:35.011Z,47.24
2023-05-01T07:43:40.386Z,46.58
2023-05-01T07:48:45.665Z,46.44
2023-05-01T07:53:51.388Z,45.70
2023-05-01T07:58:57.015Z,45.95
2023-05-01T08:04:02.615Z,44.70
2023-05-01T08:09:12.940Z,44.41
2023-05-01T08:14:19.401Z,44.36
2023-05-01T08:19:25.465Z,44.29
2023-05-01T08:24:31.064Z,43.59
2023-05-01T08:29:36.580Z,43.11
2023-05-01T08:34:41.956Z,42.55
2023-05-01T08:39:47.261Z,42.72
2023-05-01T08:44:58.917Z,42.80
2023-05-01T08:50:06.456Z,42.93
2023-05-01T08:55:14.621Z,42.50
2023-05-01T09:00:21.547Z,41.83
2023-05-01T09:05:27.171Z,40.95
2023-05-01T09:10:33.541Z,40.14
2023-05-01T09:15:39.259Z,38.46
2023-05-01T09:20:44.788Z,38.44
2023-05-01T09:25:52.057Z,38.69
2023-05-01T09:30:57.603Z,38.88
2023-05-01T09:36:02.956Z,38.11
2023-05-01T09:41:10.115Z,37.72
2023-05-01T09:46:15.610Z,37.24
2023-05-01T09:51:29.430Z,37.60
2023-05-01T09:56:46.028Z,37.36
2023-05-01T10:01:52.517Z,37.26
2023-05-01T10:06:58.255Z,37.61
2023-05-01T10:12:06.032Z,37.11
2023-05-01T10:17:20.278Z,37.44
2023-05-01T10:22:26.884Z,37.10
2023-05-01T10:27:33.541Z,37.42
2023-05-01T10:32:42.121Z,36.76
2023-05-01T10:37:49.633Z,36.77
2023-05-01T10:43:17.271Z,36.83
2023-05-01T10:48:54.408Z,36.22
2023-05-01T10:54:24.663Z,36.23
2023-05-01T11:00:07.082Z,36.45
2023-05-01T11:05:12.462Z,35.89
2023-05-01T11:10:30.234Z,34.94
2023-05-01T11:15:35.581Z,35.23
2023-05-01T11:20:51.249Z,35.35
2023-05-01T11:26:06.376Z,35.28
2023-05-01T11:31:16.671Z,34.75
2023-05-01T11:36:22.245Z,34.84
2023-05-01T11:41:28.723Z,35.11
2023-05-01T11:46:34.781Z,35.13
2023-05-01T11:51:40.262Z,35.17
2023-05-01T11:56:45.640Z,35.21
2023-05-01T12:01:51.084Z,35.10
2023-05-01T12:06:56.911Z,34.62
2023-05-01T12:12:03.843Z,33.68
2023-05-01T12:17:11.775Z,33.85
2023-05-01T12:22:17.897Z,33.73
2023-05-01T12:27:23.281Z,33.27
2023-05-01T12:32:34.044Z,34.10
2023-05-01T12:37:39.565Z,33.84
2023-05-01T12:42:53.848Z,33.09
2023-05-01T12:47:59.430Z,34.17
2023-05-01T12:53:05.950Z,33.89
2023-05-01T12:58:11.902Z,33.34
2023-05-01T13:03:25.970Z,33.92
2023-05-01T13:08:33.817Z,32.89
2023-05-01T13:13:40.329Z,32.84
2023-05-01T13:18:47.745Z,32.74
2023-05-01T13:23:57.280Z,33.28
2023-05-01T13:29:04.973Z,33.67
2023-05-01T13:34:10.595Z,33.53
2023-05-01T13:39:23.108Z,33.90
2023-05-01T13:44:29.260Z,33.46
2023-05-01T13:49:34.929Z,33.13
2023-05-01T13:54:42.242Z,33.75
2023-05-01T13:59:48.674Z,33.29
2023-05-01T14:04:54.805Z,33.16
2023-05-01T14:10:00.826Z,33.00
2023-05-01T14:15:12.113Z,32.96
2023-05-01T14:20:17.417Z,33.36
2023-05-01T14:25:26.328Z,33.38
2023-05-01T14:30:33.790Z,32.71
2023-05-01T14:35:50.001Z,32.67
2023-05-01T14:40:55.345Z,32.54
2023-05-01T14:46:01.001Z,32.93
2023-05-01T14:51:10.366Z,32.93
2023-05-01T14:56:16.223Z,33.05
2023-05-01T15:01:22.136Z,32.76
2023-05-01T15:06:29.335Z,32.90
2023-05-01T15:11:34.898Z,32.86
2023-05-01T15:16:40.656Z,33.19
2023-05-01T15:21:46.067Z,33.20
2023-05-01T15:26:51.504Z,33.21
2023-05-01T15:32:10.745Z,33.56
2023-05-01T15:37:17.789Z,33.46
2023-05-01T15:42:23.212Z,33.87
2023-05-01T15:47:28.674Z,34.08
2023-05-01T15:52:35.001Z,33.81
2023-05-01T15:57:40.303Z,33.79
2023-05-01T16:02:46.489Z,33.86
2023-05-01T16:07:55.740Z,34.26
2023-05-01T16:13:01.235Z,34.72
2023-05-01T16:18:06.693Z,34.69
2023-05-01T16:23:14.393Z,34.69
2023-05-01T16:28:20.134Z,35.18
2023-05-01T16:33:46.091Z,35.30
2023-05-01T16:39:13.676Z,35.50
2023-05-01T16:44:41.826Z,35.59
2023-05-01T16:50:07.484Z,35.17
2023-05-01T16:55:37.254Z,34.67
2023-05-01T17:01:03.073Z,35.19
2023-05-01T17:06:28.698Z,35.59
2023-05-01T17:11:54.460Z,35.49
2023-05-01T17:17:20.255Z,35.64
2023-05-01T17:22:45.881Z,35.60
2023-05-01T17:28:11.830Z,35.82
2023-05-01T17:33:37.726Z,35.86
2023-05-01T17:38:55.967Z,36.46
2023-05-01T17:44:21.679Z,36.97
2023-05-01T17:49:47.342Z,37.28
2023-05-01T17:55:13.647Z,37.65
2023-05-01T18:00:35.444Z,37.65
2023-05-01T18:06:01.370Z,37.91
2023-05-01T18:11:27.101Z,38.24
2023-05-01T18:16:52.951Z,39.30
2023-05-01T18:22:18.652Z,39.43
2023-05-01T18:27:44.389Z,40.60
2023-05-01T18:33:10.647Z,41.48
2023-05-01T18:38:36.387Z,42.39
2023-05-01T18:43:44.906Z,43.11
2023-05-01T18:48:50.806Z,43.71
2023-05-01T18:54:16.438Z,44.16
2023-05-01T18:59:32.164Z,44.61
2023-05-01T19:04:57.349Z,45.16
2023-05-01T19:10:13.003Z,45.80
2023-05-01T19:15:38.969Z,46.31
2023-05-01T19:20:49.323Z,46.89
2023-05-01T19:25:58.110Z,47.21
2023-05-01T19:31:19.834Z,47.63
2023-05-01T19:36:25.726Z,48.21
2023-05-01T19:41:52.307Z,48.48
2023-05-01T19:46:57.931Z,48.91
2023-05-01T19:52:23.656Z,49.29
2023-05-01T19:57:49.332Z,49.69
2023-05-01T20:03:15.092Z,50.11
2023-05-01T20:08:33.824Z,50.78
2023-05-01T20:13:59.446Z,51.12
2023-05-01T20:19:25.524Z,51.63
2023-05-01T20:24:43.720Z,51.71
2023-05-01T20:29:58.347Z,52.14
2023-05-01T20:35:24.551Z,52.52
2023-05-01T20:40:50.762Z,52.91
2023-05-01T20:46:16.488Z,53.53
2023-05-01T20:51:43.420Z,54.20
2023-05-01T20:57:09.046Z,54.52
2023-05-01T21:02:35.311Z,54.76
2023-05-01T21:08:01.495Z,55.01
2023-05-01T21:13:21.016Z,55.30
2023-05-01T21:18:41.892Z,55.58
2023-05-01T21:24:09.111Z,55.92
2023-05-01T21:29:35.159Z,56.26
2023-05-01T21:35:01.311Z,56.59
2023-05-01T21:40:33.528Z,56.81
2023-05-01T21:46:02.859Z,57.05
2023-05-01T21:51:28.814Z,57.19
2023-05-01T21:56:55.080Z,57.56
2023-05-01T22:02:24.098Z,58.01
2023-05-01T22:07:49.971Z,58.10
2023-05-01T22:13:15.609Z,58.35
2023-05-01T22:18:39.796Z,58.59
2023-05-01T22:24:05.409Z,58.68
2023-05-01T22:29:31.113Z,58.95
2023-05-01T22:34:56.759Z,59.24
2023-05-01T22:40:22.555Z,59.69
2023-05-01T22:45:48.253Z,59.92
2023-05-01T22:51:14.059Z,59.97
2023-05-01T22:56:39.730Z,60.17
2023-05-01T23:02:06.280Z,60.22
2023-05-01T23:07:33.852Z,60.38
2023-05-01T23:13:05.113Z,60.61
2023-05-01T23:18:30.990Z,60.51
2023-05-01T23:24:00.535Z,60.55
2023-05-01T23:29:27.400Z,59.76
2023-05-01T23:34:55.249Z,59.32
2023-05-01T23:40:21.025Z,58.29
2023-05-01T23:45:46.690Z,57.63
2023-05-01T23:51:12.511Z,57.36
2023-05-01T23:56:38.157Z,57.70
